Airport View

Enter AWOS ICAO identifier for current METAR.

ex. KFNL

KELO 210018Z AUTO 13007KT 10SM CLR 20/17 A3000 RMK AO2

21 Sep 2019 00:41

Frequency: 132.025

Phone: 218-365-3814

Other Area AWOS: KCQM - KEVM - KCDD - KBFW

TAF KHIB 202345Z 2100/2124 14008KT P6SM SCT025 BKN035 TEMPO 2100/2101 BKN029 FM210400 15006KT P6SM BKN010 WS020/18035KT FM210600 16006KT 5SM BR OVC006 WS020/18035KT FM211300 17007G18KT 4SM -SHRA BR VCTS OVC007CB FM212200 19009G22KT P6SM OVC015